Terminal Aerodrome Forecast
Issued by NWS

Home | Current Version | Previous Version | Text Only | Print | Product List | Glossary On
Versions: 1 2 3 4 5 6 7 8 9 10 11 12 13 14 15 16 17 18 19
749
FTUS41 KBTV 231120
TAFSLK
TAF
KSLK 231120Z 2312/2412 24009KT P6SM BKN015 BKN025
      TEMPO 2312/2315 25011G19KT BKN025 BKN035
     FM231500 25013G20KT P6SM BKN040
     FM240000 27007KT P6SM SCT035
     FM240700 VRB03KT 5SM BR SCT007 BKN020=

USA.gov is the U.S. government's official web portal to all federal, state and local government web resources and services.